Viru Viru International Airport

Airport
ICAO code: 
SLVR
IATA Code: 
VVI
Summary
ICAO Region: 
CARSAM
Territory: 
Location: 
Santa Cruz de la Sierra, Santa Cruz
Serving: 
Santa Cruz
Elevation: 
1224 ft
Coordinates: 
Aerial View: 
17° 38' 41.122" S, 63° 8' 7.31" W
Metar
Observation
SLVR 281100Z 19012G23KT 9999 SCT070 SCT200 25/21 Q1011
Station
Viru-Viru
Date/Time
2022-01-28 11:00:00
Wind direction
190°
Wind speed
12 kts
Lowest cloud amount
scattered clouds
Temperature
25°C
Dew point
21°C
Humidity
78%
QNH
1011 hPa
Weather condition
n/a

International Airport serving Santa Cruz de la Sierra, Bolivia.

Climatology

Tropical Savanna climate (Köppen climate classification Aw).

Runways

Designator Length Width Surface Rops
16/34 3500 45 CON Yes/Yes
Airport map: 
Aerial View: 

SKYbrary Partners:

Safety knowledge contributed by: